createdAt,value
2023-07-10T00:00:20.478Z,28.90
2023-07-10T00:01:20.460Z,28.89
2023-07-10T00:02:20.491Z,28.90
2023-07-10T00:03:20.515Z,28.90
2023-07-10T00:04:20.527Z,28.88
2023-07-10T00:05:20.533Z,28.89
2023-07-10T00:06:20.508Z,28.88
2023-07-10T00:07:20.524Z,28.88
2023-07-10T00:08:20.503Z,28.88
2023-07-10T00:09:20.500Z,28.88
2023-07-10T00:10:20.580Z,28.87
2023-07-10T00:11:20.494Z,28.88
2023-07-10T00:12:20.501Z,28.87
2023-07-10T00:13:20.484Z,28.88
2023-07-10T00:14:20.494Z,28.87
2023-07-10T00:15:20.510Z,28.87
2023-07-10T00:16:20.502Z,28.87
2023-07-10T00:17:20.538Z,28.87
2023-07-10T00:18:20.540Z,28.87
2023-07-10T00:19:23.440Z,28.87
2023-07-10T00:20:20.559Z,28.86
2023-07-10T00:21:20.534Z,28.86
2023-07-10T00:22:20.527Z,28.86
2023-07-10T00:23:20.509Z,28.86
2023-07-10T00:24:20.558Z,28.85
2023-07-10T00:25:20.528Z,28.86
2023-07-10T00:26:20.509Z,28.86
2023-07-10T00:27:20.500Z,28.86
2023-07-10T00:28:20.467Z,28.85
2023-07-10T00:29:20.505Z,28.85
2023-07-10T00:30:20.474Z,28.85
2023-07-10T00:31:20.530Z,28.85
2023-07-10T00:32:20.480Z,28.85
2023-07-10T00:33:20.465Z,28.85
2023-07-10T00:34:20.453Z,28.85
2023-07-10T00:35:20.460Z,28.85
2023-07-10T00:36:20.443Z,28.84
2023-07-10T00:37:20.422Z,28.85
2023-07-10T00:38:20.439Z,28.84
2023-07-10T00:39:20.416Z,28.84
2023-07-10T00:40:20.440Z,28.84
2023-07-10T00:41:20.393Z,28.84
2023-07-10T00:42:20.410Z,28.84
2023-07-10T00:43:20.395Z,28.84
2023-07-10T00:44:20.396Z,28.83
2023-07-10T00:45:20.380Z,28.83
2023-07-10T00:46:20.412Z,28.83
2023-07-10T00:47:20.413Z,28.83
2023-07-10T00:48:20.371Z,28.83
2023-07-10T00:49:20.355Z,28.83
2023-07-10T00:50:20.414Z,28.82
2023-07-10T00:51:20.340Z,28.82
2023-07-10T00:52:20.342Z,28.82
2023-07-10T00:53:20.326Z,28.82
2023-07-10T00:54:20.327Z,28.81
2023-07-10T00:55:20.324Z,28.81
2023-07-10T00:56:20.317Z,28.81
2023-07-10T00:57:20.303Z,28.82
2023-07-10T00:58:29.842Z,28.81
2023-07-10T00:59:21.323Z,28.81
2023-07-10T01:00:20.303Z,28.81
2023-07-10T01:01:20.645Z,28.81
2023-07-10T01:02:21.341Z,28.80
2023-07-10T01:03:20.329Z,28.80
2023-07-10T01:04:20.261Z,28.80
2023-07-10T01:05:20.261Z,28.80
2023-07-10T01:06:20.249Z,28.80
2023-07-10T01:07:20.247Z,28.80
2023-07-10T01:08:20.247Z,28.80
2023-07-10T01:09:20.222Z,28.80
2023-07-10T01:10:20.232Z,28.81
2023-07-10T01:11:20.231Z,28.80
2023-07-10T01:12:20.215Z,28.80
2023-07-10T01:13:20.197Z,28.80
2023-07-10T01:14:20.209Z,28.79
2023-07-10T01:15:20.203Z,28.80
2023-07-10T01:16:20.213Z,28.80
2023-07-10T01:17:20.186Z,28.80
2023-07-10T01:18:20.170Z,28.80
2023-07-10T01:19:20.198Z,28.79
2023-07-10T01:20:20.183Z,28.79
2023-07-10T01:21:20.150Z,28.79
2023-07-10T01:22:20.144Z,28.79
2023-07-10T01:23:20.150Z,28.79
2023-07-10T01:24:20.146Z,28.79
2023-07-10T01:25:20.184Z,28.79
2023-07-10T01:26:20.128Z,28.78
2023-07-10T01:27:20.132Z,28.78
2023-07-10T01:28:20.132Z,28.78
2023-07-10T01:29:20.116Z,28.77
2023-07-10T01:30:20.122Z,28.78
2023-07-10T01:31:20.150Z,28.77
2023-07-10T01:32:20.128Z,28.77
2023-07-10T01:33:20.098Z,28.77
2023-07-10T01:34:20.101Z,28.77
2023-07-10T01:35:20.144Z,28.77
2023-07-10T01:36:20.099Z,28.77
2023-07-10T01:37:20.107Z,28.77
2023-07-10T01:38:20.093Z,28.76
2023-07-10T01:39:20.089Z,28.77
2023-07-10T01:40:20.094Z,28.76
2023-07-10T01:41:20.090Z,28.76
2023-07-10T01:42:20.092Z,28.76
2023-07-10T01:43:20.102Z,28.76
2023-07-10T01:44:20.092Z,28.76
2023-07-10T01:45:20.101Z,28.75
2023-07-10T01:46:20.086Z,28.75
2023-07-10T01:47:20.160Z,28.75
2023-07-10T01:48:20.143Z,28.75
2023-07-10T01:49:20.135Z,28.75
2023-07-10T01:50:20.117Z,28.75
2023-07-10T01:51:20.084Z,28.75
2023-07-10T01:52:20.087Z,28.75
2023-07-10T01:53:20.087Z,28.74
2023-07-10T01:54:20.089Z,28.76
2023-07-10T01:55:20.113Z,28.74
2023-07-10T01:56:20.087Z,28.74
2023-07-10T01:57:20.092Z,28.74
2023-07-10T01:58:20.102Z,28.73
2023-07-10T01:59:20.085Z,28.74
2023-07-10T02:00:20.106Z,28.73
2023-07-10T02:01:20.099Z,28.74
2023-07-10T02:02:20.110Z,28.74
2023-07-10T02:03:20.130Z,28.74
2023-07-10T02:04:20.072Z,28.74
2023-07-10T02:05:20.103Z,28.73
2023-07-10T02:06:20.073Z,28.73
2023-07-10T02:07:20.079Z,28.74
2023-07-10T02:08:20.084Z,28.73
2023-07-10T02:09:20.079Z,28.73
2023-07-10T02:10:22.468Z,28.73
2023-07-10T02:11:21.102Z,28.72
2023-07-10T02:12:20.073Z,28.72
2023-07-10T02:13:20.081Z,28.72
2023-07-10T02:14:20.072Z,28.72
2023-07-10T02:15:20.093Z,28.72
2023-07-10T02:16:20.058Z,28.72
2023-07-10T02:17:20.130Z,28.73
2023-07-10T02:18:20.078Z,28.72
2023-07-10T02:19:20.057Z,28.72
2023-07-10T02:20:20.068Z,28.72
2023-07-10T02:21:20.034Z,28.72
2023-07-10T02:22:20.024Z,28.72
2023-07-10T02:23:19.996Z,28.71
2023-07-10T02:24:20.017Z,28.71
2023-07-10T02:25:20.017Z,28.71
2023-07-10T02:26:20.585Z,28.71
2023-07-10T02:27:19.984Z,28.71
2023-07-10T02:28:19.970Z,28.71
2023-07-10T02:29:19.963Z,28.70
2023-07-10T02:30:19.965Z,28.70
2023-07-10T02:31:19.973Z,28.71
2023-07-10T02:32:19.955Z,28.70
2023-07-10T02:33:19.953Z,28.70
2023-07-10T02:34:19.937Z,28.70
2023-07-10T02:35:19.941Z,28.70
2023-07-10T02:36:19.941Z,28.70
2023-07-10T02:37:19.914Z,28.71
2023-07-10T02:38:19.912Z,28.70
2023-07-10T02:39:19.913Z,28.70
2023-07-10T02:40:19.898Z,28.69
2023-07-10T02:41:19.915Z,28.69
2023-07-10T02:42:19.889Z,28.69
2023-07-10T02:43:19.886Z,28.69
2023-07-10T02:44:19.886Z,28.68
2023-07-10T02:45:19.884Z,28.68
2023-07-10T02:46:19.964Z,28.68
2023-07-10T02:47:19.918Z,28.68
2023-07-10T02:48:19.960Z,28.68
2023-07-10T02:49:19.923Z,28.68
2023-07-10T02:50:19.925Z,28.68
2023-07-10T02:51:20.017Z,28.67
2023-07-10T02:52:19.953Z,28.68
2023-07-10T02:53:19.955Z,28.67
2023-07-10T02:54:19.977Z,28.67
2023-07-10T02:55:19.999Z,28.67
2023-07-10T02:56:19.992Z,28.67
2023-07-10T02:57:20.025Z,28.67
2023-07-10T02:58:20.019Z,28.66
2023-07-10T02:59:20.028Z,28.67
2023-07-10T03:00:20.038Z,28.66
2023-07-10T03:01:20.072Z,28.66
2023-07-10T03:02:20.122Z,28.66
2023-07-10T03:03:20.072Z,28.65
2023-07-10T03:04:20.155Z,28.66
2023-07-10T03:05:20.102Z,28.65
2023-07-10T03:06:20.108Z,28.66
2023-07-10T03:07:20.128Z,28.65
2023-07-10T03:08:20.137Z,28.65
2023-07-10T03:09:20.137Z,28.65
2023-07-10T03:10:20.164Z,28.65
2023-07-10T03:11:20.178Z,28.65
2023-07-10T03:12:20.168Z,28.65
2023-07-10T03:13:20.180Z,28.64
2023-07-10T03:14:20.197Z,28.65
2023-07-10T03:15:20.221Z,28.65
2023-07-10T03:16:20.234Z,28.64
2023-07-10T03:17:20.217Z,28.65
2023-07-10T03:18:20.270Z,28.65
2023-07-10T03:19:20.280Z,28.64
2023-07-10T03:20:20.257Z,28.64
2023-07-10T03:21:20.265Z,28.64
2023-07-10T03:22:20.287Z,28.64
2023-07-10T03:23:20.294Z,28.64
2023-07-10T03:24:20.312Z,28.65
2023-07-10T03:25:20.334Z,28.65
2023-07-10T03:26:20.333Z,28.64
2023-07-10T03:27:20.348Z,28.65
2023-07-10T03:28:20.360Z,28.65
2023-07-10T03:29:20.376Z,28.65
2023-07-10T03:30:20.397Z,28.65
2023-07-10T03:31:20.487Z,28.65
2023-07-10T03:32:20.416Z,28.65
2023-07-10T03:33:20.462Z,28.65
2023-07-10T03:34:20.434Z,28.65
2023-07-10T03:35:20.449Z,28.65
2023-07-10T03:36:20.470Z,28.65
2023-07-10T03:37:20.476Z,28.65
2023-07-10T03:38:20.491Z,28.65
2023-07-10T03:39:20.512Z,28.65
2023-07-10T03:40:20.521Z,28.65
2023-07-10T03:41:20.528Z,28.65
2023-07-10T03:42:20.534Z,28.65
2023-07-10T03:43:20.549Z,28.65
2023-07-10T03:44:20.566Z,28.65
2023-07-10T03:45:20.576Z,28.66
2023-07-10T03:46:20.587Z,28.66
2023-07-10T03:47:20.608Z,28.65
2023-07-10T03:48:20.619Z,28.66
2023-07-10T03:49:20.624Z,28.67
2023-07-10T03:50:20.667Z,28.67
2023-07-10T03:51:20.645Z,28.67
2023-07-10T03:52:20.678Z,28.68
2023-07-10T03:53:20.681Z,28.68
2023-07-10T03:54:20.706Z,28.69
2023-07-10T03:55:20.704Z,28.68
2023-07-10T03:56:20.703Z,28.69
2023-07-10T03:57:20.711Z,28.70
2023-07-10T03:58:20.740Z,28.71
2023-07-10T03:59:20.736Z,28.71
2023-07-10T04:00:20.762Z,28.71
2023-07-10T04:01:20.793Z,28.72
2023-07-10T04:02:20.764Z,28.72
2023-07-10T04:03:20.776Z,28.72
2023-07-10T04:04:20.756Z,28.73
2023-07-10T04:05:20.793Z,28.74
2023-07-10T04:06:20.808Z,28.74
2023-07-10T04:07:20.790Z,28.74
2023-07-10T04:08:20.788Z,28.75
2023-07-10T04:09:20.786Z,28.76
2023-07-10T04:10:20.793Z,28.76
2023-07-10T04:11:20.844Z,28.76
2023-07-10T04:12:20.802Z,28.76
2023-07-10T04:13:20.824Z,28.77
2023-07-10T04:14:20.838Z,28.78
2023-07-10T04:15:20.795Z,28.78
2023-07-10T04:16:20.856Z,28.78
2023-07-10T04:17:20.810Z,28.79
2023-07-10T04:18:20.803Z,28.79
2023-07-10T04:19:20.815Z,28.80
2023-07-10T04:20:20.817Z,28.80
2023-07-10T04:21:20.817Z,28.81
2023-07-10T04:22:20.814Z,28.81
2023-07-10T04:23:20.804Z,28.82
2023-07-10T04:24:20.801Z,28.83
2023-07-10T04:25:20.814Z,28.84
2023-07-10T04:26:20.796Z,28.84
2023-07-10T04:27:20.793Z,28.85
2023-07-10T04:28:20.786Z,28.87
2023-07-10T04:29:20.793Z,28.88
2023-07-10T04:30:20.808Z,28.88
2023-07-10T04:31:20.845Z,28.89
2023-07-10T04:32:20.784Z,28.90
2023-07-10T04:33:20.773Z,28.91
2023-07-10T04:34:20.768Z,28.92
2023-07-10T04:35:20.774Z,28.93
2023-07-10T04:36:20.761Z,28.94
2023-07-10T04:37:20.748Z,28.95
2023-07-10T04:38:20.740Z,28.97
2023-07-10T04:39:20.743Z,28.98
2023-07-10T04:40:20.761Z,28.99
2023-07-10T04:41:20.755Z,29.00
2023-07-10T04:42:20.775Z,29.00
2023-07-10T04:43:20.755Z,29.01
2023-07-10T04:44:20.816Z,29.01
2023-07-10T04:45:20.787Z,29.02
2023-07-10T04:46:20.913Z,29.02
2023-07-10T04:47:20.886Z,29.02
2023-07-10T04:48:20.911Z,29.02
2023-07-10T04:49:20.842Z,29.02
2023-07-10T04:50:20.822Z,29.01
2023-07-10T04:51:20.866Z,29.02
2023-07-10T04:52:20.857Z,29.01
2023-07-10T04:53:20.872Z,29.02
2023-07-10T04:54:20.880Z,29.01
2023-07-10T04:55:20.891Z,29.02
2023-07-10T04:56:20.903Z,29.02
2023-07-10T04:57:20.945Z,29.02
2023-07-10T04:58:20.939Z,29.03
2023-07-10T04:59:20.959Z,29.03
2023-07-10T05:00:20.963Z,29.04
2023-07-10T05:01:20.954Z,29.04
2023-07-10T05:02:21.039Z,29.05
2023-07-10T05:03:21.037Z,29.06
2023-07-10T05:04:21.045Z,29.06
2023-07-10T05:05:21.016Z,29.06
2023-07-10T05:06:21.037Z,29.06
2023-07-10T05:07:21.089Z,29.06
2023-07-10T05:08:21.089Z,29.05
2023-07-10T05:09:21.121Z,29.04
2023-07-10T05:10:21.149Z,29.04
2023-07-10T05:11:21.160Z,29.06
2023-07-10T05:12:21.188Z,29.08
2023-07-10T05:13:21.230Z,29.10
2023-07-10T05:14:21.297Z,29.11
2023-07-10T05:15:21.317Z,29.11
2023-07-10T05:16:21.491Z,29.11
2023-07-10T05:17:21.412Z,29.11
2023-07-10T05:18:21.392Z,29.12
2023-07-10T05:19:21.443Z,29.14
2023-07-10T05:20:21.511Z,29.15
2023-07-10T05:21:21.521Z,29.14
2023-07-10T05:22:21.596Z,29.15
2023-07-10T05:23:21.661Z,29.15
2023-07-10T05:24:21.700Z,29.17
2023-07-10T05:25:21.753Z,29.20
2023-07-10T05:26:21.800Z,29.25
2023-07-10T05:27:21.860Z,29.30
2023-07-10T05:28:21.936Z,29.36
2023-07-10T05:29:22.007Z,29.39
2023-07-10T05:30:22.038Z,29.41
2023-07-10T05:31:22.133Z,29.42
2023-07-10T05:32:22.205Z,29.44
2023-07-10T05:33:22.231Z,29.45
2023-07-10T05:34:22.247Z,29.48
2023-07-10T05:35:22.311Z,29.47
2023-07-10T05:36:22.361Z,29.45
2023-07-10T05:37:22.424Z,29.43
2023-07-10T05:38:22.488Z,29.41
2023-07-10T05:39:22.565Z,29.40
2023-07-10T05:40:22.607Z,29.38
2023-07-10T05:41:22.649Z,29.38
2023-07-10T05:42:22.700Z,29.37
2023-07-10T05:43:22.787Z,29.37
2023-07-10T05:44:22.830Z,29.36
2023-07-10T05:45:22.886Z,29.35
2023-07-10T05:46:23.054Z,29.36
2023-07-10T05:47:23.093Z,29.36
2023-07-10T05:48:23.058Z,29.37
2023-07-10T05:49:23.113Z,29.36
2023-07-10T05:50:23.195Z,29.36
2023-07-10T05:51:23.247Z,29.36
2023-07-10T05:52:23.294Z,29.36
2023-07-10T05:53:23.362Z,29.35
2023-07-10T05:54:23.427Z,29.35
2023-07-10T05:55:23.499Z,29.34
2023-07-10T05:56:23.538Z,29.33
2023-07-10T05:57:23.608Z,29.32
2023-07-10T05:58:23.686Z,29.32
2023-07-10T05:59:23.735Z,29.33
2023-07-10T06:00:23.796Z,29.33
2023-07-10T06:01:23.914Z,29.34
2023-07-10T06:02:23.924Z,29.34
2023-07-10T06:03:23.981Z,29.33
2023-07-10T06:04:24.044Z,29.34
2023-07-10T06:05:24.085Z,29.34
2023-07-10T06:06:24.128Z,29.35
2023-07-10T06:07:24.186Z,29.35
2023-07-10T06:08:24.248Z,29.36
2023-07-10T06:09:24.304Z,29.36
2023-07-10T06:10:24.446Z,29.37
2023-07-10T06:11:24.424Z,29.37
2023-07-10T06:12:24.497Z,29.39
2023-07-10T06:13:24.538Z,29.39
2023-07-10T06:14:24.585Z,29.39
2023-07-10T06:15:24.663Z,29.40
2023-07-10T06:16:24.748Z,29.40
2023-07-10T06:17:24.804Z,29.41
2023-07-10T06:18:24.834Z,29.42
2023-07-10T06:19:24.885Z,29.43
2023-07-10T06:20:24.925Z,29.44
2023-07-10T06:21:24.968Z,29.45
2023-07-10T06:22:25.016Z,29.46
2023-07-10T06:23:25.120Z,29.47
2023-07-10T06:24:25.110Z,29.46
2023-07-10T06:25:25.161Z,29.47
2023-07-10T06:26:25.218Z,29.48
2023-07-10T06:27:25.259Z,29.49
2023-07-10T06:28:25.313Z,29.50
2023-07-10T06:29:25.360Z,29.51
2023-07-10T06:30:25.428Z,29.51
2023-07-10T06:31:25.493Z,29.51
2023-07-10T06:32:25.542Z,29.50
2023-07-10T06:33:25.571Z,29.50
2023-07-10T06:34:25.611Z,29.50
2023-07-10T06:35:25.686Z,29.51
2023-07-10T06:36:25.730Z,29.53
2023-07-10T06:37:25.766Z,29.56
2023-07-10T06:38:25.798Z,29.60
2023-07-10T06:39:25.849Z,29.64
2023-07-10T06:40:25.892Z,29.69
2023-07-10T06:41:25.920Z,29.70
2023-07-10T06:42:25.966Z,29.73
2023-07-10T06:43:25.987Z,29.81
2023-07-10T06:44:26.035Z,29.86
2023-07-10T06:45:26.042Z,29.88
2023-07-10T06:46:26.128Z,29.88
2023-07-10T06:47:26.136Z,29.86
2023-07-10T06:48:26.123Z,29.82
2023-07-10T06:49:26.142Z,29.83
2023-07-10T06:50:26.177Z,29.85
2023-07-10T06:51:26.207Z,29.87
2023-07-10T06:52:26.233Z,29.90
2023-07-10T06:53:27.926Z,29.91
2023-07-10T06:54:26.272Z,29.92
2023-07-10T06:55:26.304Z,29.93
2023-07-10T06:56:26.313Z,29.94
2023-07-10T06:57:26.320Z,29.96
2023-07-10T06:58:26.354Z,29.99
2023-07-10T06:59:26.368Z,30.00
2023-07-10T07:00:26.432Z,30.00
2023-07-10T07:01:26.414Z,30.01
2023-07-10T07:02:26.424Z,30.03
2023-07-10T07:03:26.446Z,30.04
2023-07-10T07:04:26.404Z,30.06
2023-07-10T07:05:26.460Z,30.05
2023-07-10T07:06:26.434Z,30.06
2023-07-10T07:07:26.426Z,30.06
2023-07-10T07:08:26.449Z,30.05
2023-07-10T07:09:26.438Z,30.05
2023-07-10T07:10:26.507Z,30.04
2023-07-10T07:11:26.456Z,30.03
2023-07-10T07:12:26.466Z,30.02
2023-07-10T07:13:26.489Z,30.02
2023-07-10T07:14:26.503Z,30.01
2023-07-10T07:15:26.506Z,30.01
2023-07-10T07:16:26.545Z,29.99
2023-07-10T07:17:26.563Z,29.99
2023-07-10T07:18:29.293Z,29.99
2023-07-10T07:19:26.550Z,29.98
2023-07-10T07:20:26.569Z,29.98
2023-07-10T07:21:26.538Z,29.97
2023-07-10T07:22:26.527Z,29.97
2023-07-10T07:23:26.553Z,29.97
2023-07-10T07:24:26.503Z,29.97
2023-07-10T07:25:26.506Z,29.98
2023-07-10T07:26:26.495Z,29.99
2023-07-10T07:27:26.580Z,30.00
2023-07-10T07:28:26.482Z,30.00
2023-07-10T07:29:26.488Z,30.01
2023-07-10T07:30:26.593Z,30.03
2023-07-10T07:31:26.584Z,30.03
2023-07-10T07:32:26.470Z,30.04
2023-07-10T07:33:26.461Z,30.04
2023-07-10T07:34:26.443Z,30.05
2023-07-10T07:35:26.440Z,30.05
2023-07-10T07:36:26.431Z,30.06
2023-07-10T07:37:26.425Z,30.06
2023-07-10T07:38:26.415Z,30.08
2023-07-10T07:39:26.424Z,30.07
2023-07-10T07:40:26.474Z,30.07
2023-07-10T07:41:26.396Z,30.08
2023-07-10T07:42:26.398Z,30.07
2023-07-10T07:43:26.402Z,30.07
2023-07-10T07:44:26.391Z,30.06
2023-07-10T07:45:26.398Z,30.06
2023-07-10T07:46:26.459Z,30.06
2023-07-10T07:47:26.436Z,30.06
2023-07-10T07:48:26.389Z,30.05
2023-07-10T07:49:26.338Z,30.05
2023-07-10T07:50:26.349Z,30.03
2023-07-10T07:51:26.347Z,30.02
2023-07-10T07:52:26.337Z,30.01
2023-07-10T07:53:26.320Z,30.01
2023-07-10T07:54:26.315Z,30.00
2023-07-10T07:55:26.316Z,29.99
2023-07-10T07:56:26.302Z,29.97
2023-07-10T07:57:26.298Z,29.95
2023-07-10T07:58:26.305Z,29.95
2023-07-10T07:59:26.284Z,29.94
2023-07-10T08:00:28.343Z,29.93
2023-07-10T08:01:26.286Z,29.91
2023-07-10T08:02:26.302Z,29.91
2023-07-10T08:03:26.394Z,29.89
2023-07-10T08:04:26.330Z,29.88
2023-07-10T08:05:35.314Z,29.87
2023-07-10T08:06:27.299Z,29.86
2023-07-10T08:07:26.284Z,29.85
2023-07-10T08:08:26.298Z,29.83
2023-07-10T08:09:26.275Z,29.83
2023-07-10T08:10:26.281Z,29.81
2023-07-10T08:11:26.268Z,29.80
2023-07-10T08:12:26.260Z,29.80
2023-07-10T08:13:26.295Z,29.79
2023-07-10T08:14:26.264Z,29.78
2023-07-10T08:15:26.240Z,29.78
2023-07-10T08:16:26.282Z,29.76
2023-07-10T08:17:26.271Z,29.76
2023-07-10T08:18:26.223Z,29.74
2023-07-10T08:19:26.222Z,29.73
2023-07-10T08:20:26.213Z,29.73
2023-07-10T08:21:26.216Z,29.73
2023-07-10T08:22:26.207Z,29.72
2023-07-10T08:23:26.211Z,29.70
2023-07-10T08:24:26.180Z,29.70
2023-07-10T08:25:26.221Z,29.69
2023-07-10T08:26:26.210Z,29.70
2023-07-10T08:27:26.229Z,29.69
2023-07-10T08:28:26.257Z,29.68
2023-07-10T08:29:26.285Z,29.68
2023-07-10T08:30:26.308Z,29.68
2023-07-10T08:31:26.375Z,29.67
2023-07-10T08:32:26.365Z,29.66
2023-07-10T08:33:26.378Z,29.66
2023-07-10T08:34:26.456Z,29.66
2023-07-10T08:35:26.456Z,29.65
2023-07-10T08:36:26.478Z,29.65
2023-07-10T08:37:26.507Z,29.63
2023-07-10T08:38:26.546Z,29.64
2023-07-10T08:39:26.569Z,29.63
2023-07-10T08:40:26.608Z,29.62
2023-07-10T08:41:26.637Z,29.62
2023-07-10T08:42:26.684Z,29.61
2023-07-10T08:43:26.702Z,29.61
2023-07-10T08:44:26.734Z,29.61
2023-07-10T08:45:26.784Z,29.61
2023-07-10T08:46:26.903Z,29.61
2023-07-10T08:47:26.930Z,29.60
2023-07-10T08:48:26.969Z,29.60
2023-07-10T08:49:26.928Z,29.60
2023-07-10T08:50:26.983Z,29.60
2023-07-10T08:51:27.002Z,29.60
2023-07-10T08:52:27.037Z,29.59
2023-07-10T08:53:27.078Z,29.60
2023-07-10T08:54:27.106Z,29.61
2023-07-10T08:55:27.144Z,29.61
2023-07-10T08:56:27.184Z,29.61
2023-07-10T08:57:27.205Z,29.61
2023-07-10T08:58:27.241Z,29.62
2023-07-10T08:59:27.262Z,29.62
2023-07-10T09:00:27.309Z,29.64
2023-07-10T09:01:27.408Z,29.64
2023-07-10T09:02:27.393Z,29.65
2023-07-10T09:03:27.395Z,29.66
2023-07-10T09:04:27.487Z,29.68
2023-07-10T09:05:27.463Z,29.68
2023-07-10T09:06:27.488Z,29.69
2023-07-10T09:07:27.516Z,29.70
2023-07-10T09:08:27.552Z,29.70
2023-07-10T09:09:27.587Z,29.70
2023-07-10T09:10:27.608Z,29.71
2023-07-10T09:11:27.653Z,29.73
2023-07-10T09:12:27.693Z,29.74
2023-07-10T09:13:27.725Z,29.75
2023-07-10T09:14:27.732Z,29.76
2023-07-10T09:15:27.746Z,29.77
2023-07-10T09:16:27.846Z,29.79
2023-07-10T09:17:27.864Z,29.80
2023-07-10T09:18:27.824Z,29.80
2023-07-10T09:19:27.856Z,29.81
2023-07-10T09:20:27.933Z,29.82
2023-07-10T09:21:27.902Z,29.82
2023-07-10T09:22:27.937Z,29.82
2023-07-10T09:23:27.931Z,29.83
2023-07-10T09:24:27.966Z,29.83
2023-07-10T09:25:27.969Z,29.85
2023-07-10T09:26:28.009Z,29.85
2023-07-10T09:27:28.009Z,29.86
2023-07-10T09:28:28.055Z,29.87
2023-07-10T09:29:28.098Z,29.88
2023-07-10T09:30:28.101Z,29.90
2023-07-10T09:31:30.085Z,29.90
2023-07-10T09:32:28.154Z,29.92
2023-07-10T09:33:28.145Z,29.92
2023-07-10T09:34:28.176Z,29.93
2023-07-10T09:35:28.185Z,29.93
2023-07-10T09:36:28.201Z,29.95
2023-07-10T09:37:28.190Z,29.96
2023-07-10T09:38:28.198Z,29.96
2023-07-10T09:39:28.238Z,29.96
2023-07-10T09:40:28.244Z,29.96
2023-07-10T09:41:28.275Z,29.96
2023-07-10T09:42:28.253Z,29.97
2023-07-10T09:43:28.270Z,29.97
2023-07-10T09:44:28.270Z,29.97
2023-07-10T09:45:28.275Z,29.96
2023-07-10T09:46:28.309Z,29.96
2023-07-10T09:47:28.314Z,29.97
2023-07-10T09:48:28.311Z,29.96
2023-07-10T09:49:28.337Z,29.97
2023-07-10T09:50:28.347Z,29.97
2023-07-10T09:51:28.378Z,29.97
2023-07-10T09:52:28.381Z,29.97
2023-07-10T09:53:28.387Z,29.96
2023-07-10T09:54:28.427Z,29.97
2023-07-10T09:55:28.430Z,29.96
2023-07-10T09:56:28.459Z,29.96
2023-07-10T09:57:28.461Z,29.97
2023-07-10T09:58:28.463Z,29.97
2023-07-10T09:59:28.468Z,29.97
2023-07-10T10:00:28.483Z,29.97
2023-07-10T10:01:28.538Z,29.98
2023-07-10T10:02:28.590Z,29.97
2023-07-10T10:03:28.541Z,29.97
2023-07-10T10:04:28.520Z,29.97
2023-07-10T10:05:28.538Z,29.96
2023-07-10T10:06:28.552Z,29.97
2023-07-10T10:07:28.550Z,29.97
2023-07-10T10:08:28.577Z,29.96
2023-07-10T10:09:28.598Z,29.96
2023-07-10T10:10:28.587Z,29.96
2023-07-10T10:11:28.594Z,29.96
2023-07-10T10:12:28.601Z,29.96
2023-07-10T10:13:28.642Z,29.95
2023-07-10T10:14:28.631Z,29.96
2023-07-10T10:15:28.642Z,29.95
2023-07-10T10:16:28.658Z,29.95
2023-07-10T10:17:28.767Z,29.96
2023-07-10T10:18:30.527Z,29.96
2023-07-10T10:19:28.663Z,29.96
2023-07-10T10:20:28.677Z,29.96
2023-07-10T10:21:28.665Z,29.96
2023-07-10T10:22:28.648Z,29.96
2023-07-10T10:23:28.659Z,29.96
2023-07-10T10:24:28.647Z,29.96
2023-07-10T10:25:28.630Z,29.96
2023-07-10T10:26:28.621Z,29.96
2023-07-10T10:27:28.607Z,29.96
2023-07-10T10:28:28.606Z,29.97
2023-07-10T10:29:28.631Z,29.96
2023-07-10T10:30:28.610Z,29.95
2023-07-10T10:31:28.663Z,29.95
2023-07-10T10:32:28.600Z,29.95
2023-07-10T10:33:28.624Z,29.94
2023-07-10T10:34:28.582Z,29.94
2023-07-10T10:35:28.579Z,29.94
2023-07-10T10:36:28.570Z,29.94
2023-07-10T10:37:28.549Z,29.94
2023-07-10T10:38:28.545Z,29.94
2023-07-10T10:39:28.534Z,29.93
2023-07-10T10:40:28.524Z,29.93
2023-07-10T10:41:28.523Z,29.93
2023-07-10T10:42:28.515Z,29.93
2023-07-10T10:43:28.512Z,29.92
2023-07-10T10:44:28.528Z,29.92
2023-07-10T10:45:28.502Z,29.92
2023-07-10T10:46:28.863Z,29.92
2023-07-10T10:47:28.541Z,29.92
2023-07-10T10:48:28.469Z,29.92
2023-07-10T10:49:28.466Z,29.91
2023-07-10T10:50:28.469Z,29.92
2023-07-10T10:51:28.461Z,29.91
2023-07-10T10:52:28.464Z,29.92
2023-07-10T10:53:28.441Z,29.91
2023-07-10T10:54:33.510Z,29.91
2023-07-10T10:55:29.433Z,29.91
2023-07-10T10:56:28.440Z,29.90
2023-07-10T10:57:28.440Z,29.89
2023-07-10T10:58:28.442Z,29.90
2023-07-10T10:59:28.429Z,29.90
2023-07-10T11:00:28.417Z,29.90
2023-07-10T11:01:28.448Z,29.90
2023-07-10T11:02:28.409Z,29.89
2023-07-10T11:03:28.446Z,29.89
2023-07-10T11:04:28.386Z,29.89
2023-07-10T11:05:28.357Z,29.89
2023-07-10T11:06:28.366Z,29.89
2023-07-10T11:07:28.362Z,29.89
2023-07-10T11:08:28.369Z,29.88
2023-07-10T11:09:28.343Z,29.88
2023-07-10T11:10:28.343Z,29.88
2023-07-10T11:11:28.328Z,29.88
2023-07-10T11:12:28.344Z,29.88
2023-07-10T11:13:28.339Z,29.87
2023-07-10T11:14:28.332Z,29.87
2023-07-10T11:15:28.345Z,29.87
2023-07-10T11:16:28.365Z,29.87
2023-07-10T11:17:28.303Z,29.87
2023-07-10T11:18:28.284Z,29.87
2023-07-10T11:19:28.277Z,29.88
2023-07-10T11:20:28.277Z,29.88
2023-07-10T11:21:28.260Z,29.88
2023-07-10T11:22:28.250Z,29.87
2023-07-10T11:23:28.240Z,29.87
2023-07-10T11:24:28.242Z,29.87
2023-07-10T11:25:28.231Z,29.87
2023-07-10T11:26:28.228Z,29.87
2023-07-10T11:27:28.236Z,29.87
2023-07-10T11:28:28.380Z,29.87
2023-07-10T11:29:28.232Z,29.86
2023-07-10T11:30:28.251Z,29.86
2023-07-10T11:31:28.290Z,29.87
2023-07-10T11:32:28.320Z,29.88
2023-07-10T11:33:28.262Z,29.86
2023-07-10T11:34:28.272Z,29.87
2023-07-10T11:35:28.271Z,29.87
2023-07-10T11:36:28.306Z,29.87
2023-07-10T11:37:28.298Z,29.87
2023-07-10T11:38:28.331Z,29.87
2023-07-10T11:39:28.328Z,29.87
2023-07-10T11:40:28.348Z,29.87
2023-07-10T11:41:28.362Z,29.87
2023-07-10T11:42:31.039Z,29.87
2023-07-10T11:43:28.375Z,29.87
2023-07-10T11:44:28.374Z,29.86
2023-07-10T11:45:28.351Z,29.86
2023-07-10T11:46:28.395Z,29.86
2023-07-10T11:47:28.415Z,29.86
2023-07-10T11:48:28.331Z,29.86
2023-07-10T11:49:28.326Z,29.87
2023-07-10T11:50:28.320Z,29.87
2023-07-10T11:51:28.342Z,29.86
2023-07-10T11:52:28.343Z,29.87
2023-07-10T11:53:28.307Z,29.87
2023-07-10T11:54:28.294Z,29.86
2023-07-10T11:55:28.289Z,29.87
2023-07-10T11:56:28.345Z,29.86
2023-07-10T11:57:28.281Z,29.87
2023-07-10T11:58:28.279Z,29.87
2023-07-10T11:59:28.271Z,29.87
2023-07-10T12:00:28.253Z,29.87
2023-07-10T12:01:28.401Z,29.87
2023-07-10T12:02:28.306Z,29.87
2023-07-10T12:03:28.284Z,29.87
2023-07-10T12:04:28.233Z,29.87
2023-07-10T12:05:28.562Z,29.87
2023-07-10T12:06:28.232Z,29.87
2023-07-10T12:07:28.218Z,29.87
2023-07-10T12:08:28.207Z,29.87
2023-07-10T12:09:28.202Z,29.87
2023-07-10T12:10:28.206Z,29.87
2023-07-10T12:11:28.189Z,29.87
2023-07-10T12:12:28.180Z,29.87
2023-07-10T12:13:28.256Z,29.87
2023-07-10T12:14:28.168Z,29.87
2023-07-10T12:15:28.161Z,29.87
2023-07-10T12:16:41.280Z,29.87
2023-07-10T12:17:40.207Z,29.86
2023-07-10T12:18:29.188Z,29.86
2023-07-10T12:19:28.218Z,29.87
2023-07-10T12:20:28.131Z,29.87
2023-07-10T12:21:28.131Z,29.87
2023-07-10T12:22:28.125Z,29.87
2023-07-10T12:23:28.110Z,29.87
2023-07-10T12:24:28.101Z,29.87
2023-07-10T12:25:28.097Z,29.88
2023-07-10T12:27:05.832Z,29.88
2023-07-10T12:28:06.395Z,29.87
2023-07-10T12:28:30.467Z,29.87
2023-07-10T12:29:28.066Z,29.87
2023-07-10T12:30:28.083Z,29.88
2023-07-10T12:31:28.160Z,29.88
2023-07-10T12:32:28.067Z,29.88
2023-07-10T12:33:28.041Z,29.88
2023-07-10T12:34:28.051Z,29.87
2023-07-10T12:35:28.043Z,29.88
2023-07-10T12:36:28.045Z,29.88
2023-07-10T12:37:28.039Z,29.88
2023-07-10T12:38:28.010Z,29.88
2023-07-10T12:39:28.019Z,29.88
2023-07-10T12:40:28.009Z,29.89
2023-07-10T12:41:28.026Z,29.89
2023-07-10T12:42:27.998Z,29.89
2023-07-10T12:43:28.009Z,29.89
2023-07-10T12:44:28.000Z,29.89
2023-07-10T12:45:27.976Z,29.89
2023-07-10T12:46:28.016Z,29.89
2023-07-10T12:47:28.019Z,29.89
2023-07-10T12:48:27.993Z,29.89
2023-07-10T12:49:27.947Z,29.90
2023-07-10T12:50:27.948Z,29.90
2023-07-10T12:51:27.972Z,29.90
2023-07-10T12:52:27.941Z,29.89